Terminal Aerodrome Forecast
Issued by NWS Boise, ID

Home | Current Version | Previous Version | Text Only | Print | Product List | Glossary On
Versions: 1 2 3 4 5 6 7 8 9 10 11 12 13 14 15 16 17 18 19 20 21 22 23 24 25 26 27 28 29 30
000
FTUS45 KBOI 191729
TAFBOI
TAF
KBOI 191729Z 1918/2018 30006KT P6SM SCT100 BKN150
     FM192100 34012G22KT P6SM VCSH BKN070
     FM200100 33006KT P6SM SCT100
     FM201500 31012G18KT P6SM FEW100=

USA.gov is the U.S. government's official web portal to all federal, state and local government web resources and services.